NDF3PC HECA-EDDB
Flight info
| Callsign | NDF3PC |
|---|---|
| Flight time | N/A |
| Altitude | 32000 |
| Route | DCT CVO L617 NOZ L551 ANTAR UN133 KOROS/N0448F340 DCT PEREN UL863 EVIVI L863 OKANA DCT TONDO DCT BEGLA DCT NAVTI DCT BODAL DCT ODLIV DCT LEGAZ DCT BEFRE T204 NUKRO NUKRO1R |
| Aircraft | A321/M-SDE3FGHIRWY/LB1 |
Departure
| Time | 2026-05-07 10:31 |
|---|---|
| Airport | Cairo International Airport (HECA) |
Arrival
| Time | N/A |
|---|---|
| Airport | Berlin Brandenburg Airport (EDDB) |
| Time | Latitude | Longitude | Altitude | Speed | Heading |
|---|---|---|---|---|---|
| 2026-05-07 10:09 | 30.10869 | 31.39651 | 337 ft | 0 kts | 253° |
| 2026-05-07 10:20 | 30.10869 | 31.39653 | 336 ft | 2 kts | 253° |
| 2026-05-07 10:21 | 30.10876 | 31.39680 | 335 ft | 4 kts | 253° |
| 2026-05-07 10:21 | 30.10884 | 31.39710 | 332 ft | 4 kts | 249° |
| 2026-05-07 10:21 | 30.10895 | 31.39736 | 333 ft | 4 kts | 221° |
| 2026-05-07 10:21 | 30.10911 | 31.39745 | 332 ft | 1 kts | 169° |
| 2026-05-07 10:22 | 30.10915 | 31.39744 | 332 ft | 1 kts | 169° |
| 2026-05-07 10:24 | 30.10889 | 31.39750 | 336 ft | 8 kts | 168° |
| 2026-05-07 10:24 | 30.10812 | 31.39773 | 352 ft | 15 kts | 165° |
| 2026-05-07 10:24 | 30.10692 | 31.39811 | 353 ft | 18 kts | 165° |
| 2026-05-07 10:24 | 30.10584 | 31.39842 | 361 ft | 15 kts | 165° |
| 2026-05-07 10:25 | 30.10500 | 31.39892 | 362 ft | 13 kts | 124° |
| 2026-05-07 10:25 | 30.10513 | 31.39993 | 368 ft | 16 kts | 51° |
| 2026-05-07 10:25 | 30.10599 | 31.40110 | 365 ft | 22 kts | 46° |
| 2026-05-07 10:25 | 30.10711 | 31.40263 | 365 ft | 28 kts | 48° |
| 2026-05-07 10:26 | 30.10848 | 31.40439 | 366 ft | 30 kts | 47° |
| 2026-05-07 10:26 | 30.10983 | 31.40617 | 368 ft | 29 kts | 48° |
| 2026-05-07 10:26 | 30.11075 | 31.40806 | 366 ft | 26 kts | 86° |
| 2026-05-07 10:26 | 30.11136 | 31.40978 | 370 ft | 23 kts | 50° |
| 2026-05-07 10:27 | 30.11235 | 31.41114 | 370 ft | 22 kts | 50° |
| 2026-05-07 10:27 | 30.11339 | 31.41252 | 370 ft | 24 kts | 48° |
| 2026-05-07 10:27 | 30.11451 | 31.41401 | 369 ft | 25 kts | 48° |
| 2026-05-07 10:27 | 30.11573 | 31.41557 | 375 ft | 27 kts | 48° |
| 2026-05-07 10:28 | 30.11695 | 31.41728 | 368 ft | 28 kts | 49° |
| 2026-05-07 10:28 | 30.11826 | 31.41902 | 368 ft | 29 kts | 48° |
| 2026-05-07 10:28 | 30.11963 | 31.42083 | 369 ft | 30 kts | 49° |
| 2026-05-07 10:28 | 30.12103 | 31.42271 | 367 ft | 31 kts | 50° |
| 2026-05-07 10:29 | 30.12246 | 31.42467 | 367 ft | 32 kts | 51° |
| 2026-05-07 10:29 | 30.12397 | 31.42666 | 366 ft | 33 kts | 47° |
| 2026-05-07 10:29 | 30.12466 | 31.42843 | 370 ft | 24 kts | 103° |
| 2026-05-07 10:30 | 30.12235 | 31.42835 | 380 ft | 20 kts | 227° |
| 2026-05-07 10:30 | 30.12100 | 31.42658 | 380 ft | 56 kts | 229° |
| 2026-05-07 10:30 | 30.11701 | 31.42126 | 383 ft | 118 kts | 229° |
| 2026-05-07 10:30 | 30.11041 | 31.41254 | 387 ft | 169 kts | 229° |
| 2026-05-07 10:31 | 30.10479 | 31.40500 | 406 ft | 195 kts | 231° |
| 2026-05-07 10:31 | 30.09643 | 31.39295 | 1065 ft | 187 kts | 239° |
| 2026-05-07 10:31 | 30.09163 | 31.37835 | 1164 ft | 221 kts | 274° |
| 2026-05-07 10:31 | 30.09734 | 31.36081 | 1441 ft | 240 kts | 311° |
| 2026-05-07 10:32 | 30.10989 | 31.34749 | 2248 ft | 250 kts | 330° |
| 2026-05-07 10:32 | 30.12615 | 31.34242 | 2843 ft | 250 kts | 6° |
| 2026-05-07 10:32 | 30.14236 | 31.34918 | 3546 ft | 245 kts | 19° |
| 2026-05-07 10:32 | 30.15780 | 31.35452 | 4669 ft | 229 kts | 6° |
| 2026-05-07 10:33 | 30.17414 | 31.35209 | 4944 ft | 251 kts | 336° |
| 2026-05-07 10:33 | 30.18841 | 31.33958 | 5354 ft | 265 kts | 317° |
| 2026-05-07 10:33 | 30.20157 | 31.32441 | 5965 ft | 269 kts | 317° |
| 2026-05-07 10:33 | 30.21489 | 31.30912 | 6658 ft | 271 kts | 316° |
| 2026-05-07 10:34 | 30.22833 | 31.29376 | 7247 ft | 273 kts | 317° |
| 2026-05-07 10:34 | 30.24193 | 31.27830 | 7897 ft | 275 kts | 316° |
| 2026-05-07 10:34 | 30.25562 | 31.26277 | 8513 ft | 277 kts | 316° |
| 2026-05-07 10:34 | 30.26944 | 31.24710 | 9147 ft | 279 kts | 316° |
| 2026-05-07 10:35 | 30.28336 | 31.23130 | 9770 ft | 282 kts | 316° |
| 2026-05-07 10:35 | 30.29739 | 31.21537 | 10280 ft | 285 kts | 316° |
| 2026-05-07 10:35 | 30.31205 | 31.19875 | 10412 ft | 305 kts | 316° |
| 2026-05-07 10:35 | 30.32768 | 31.18104 | 10537 ft | 324 kts | 316° |
| 2026-05-07 10:36 | 30.34416 | 31.16234 | 10691 ft | 340 kts | 316° |
| 2026-05-07 10:36 | 30.36124 | 31.14290 | 11097 ft | 347 kts | 315° |
| 2026-05-07 10:36 | 30.37853 | 31.12316 | 11641 ft | 351 kts | 315° |
| 2026-05-07 10:36 | 30.39593 | 31.10326 | 12180 ft | 353 kts | 315° |
| 2026-05-07 10:37 | 30.41342 | 31.08327 | 12718 ft | 355 kts | 315° |
| 2026-05-07 10:37 | 30.43116 | 31.06305 | 13267 ft | 358 kts | 315° |
| 2026-05-07 10:37 | 30.44896 | 31.04275 | 13797 ft | 360 kts | 314° |
| 2026-05-07 10:37 | 30.46687 | 31.02233 | 14273 ft | 363 kts | 314° |
| 2026-05-07 10:38 | 30.48491 | 31.00173 | 14747 ft | 365 kts | 314° |
| 2026-05-07 10:38 | 30.50306 | 30.98102 | 15220 ft | 367 kts | 314° |
| 2026-05-07 10:38 | 30.52131 | 30.96020 | 15705 ft | 369 kts | 314° |
| 2026-05-07 10:38 | 30.53966 | 30.93928 | 16191 ft | 371 kts | 314° |
| 2026-05-07 10:39 | 30.55814 | 30.91818 | 16664 ft | 374 kts | 314° |
| 2026-05-07 10:39 | 30.57672 | 30.89693 | 17141 ft | 376 kts | 315° |
| 2026-05-07 10:39 | 30.59543 | 30.87550 | 17622 ft | 379 kts | 314° |
| 2026-05-07 10:39 | 30.61421 | 30.85392 | 18085 ft | 381 kts | 314° |
| 2026-05-07 10:40 | 30.63307 | 30.83216 | 18529 ft | 384 kts | 314° |
| 2026-05-07 10:40 | 30.65208 | 30.81026 | 18921 ft | 386 kts | 314° |
| 2026-05-07 10:40 | 30.67122 | 30.78823 | 19321 ft | 389 kts | 314° |
| 2026-05-07 10:40 | 30.69051 | 30.76609 | 19722 ft | 391 kts | 314° |
| 2026-05-07 10:41 | 30.70991 | 30.74382 | 20114 ft | 393 kts | 314° |
| 2026-05-07 10:41 | 30.72942 | 30.72141 | 20503 ft | 396 kts | 314° |
| 2026-05-07 10:41 | 30.74906 | 30.69886 | 20884 ft | 398 kts | 314° |
| 2026-05-07 10:41 | 30.76880 | 30.67613 | 21251 ft | 401 kts | 314° |
| 2026-05-07 10:42 | 30.78865 | 30.65322 | 21624 ft | 403 kts | 314° |
| 2026-05-07 10:42 | 30.80859 | 30.63019 | 21983 ft | 405 kts | 314° |
| 2026-05-07 10:42 | 30.82865 | 30.60703 | 22331 ft | 407 kts | 314° |
| 2026-05-07 10:42 | 30.84881 | 30.58372 | 22674 ft | 410 kts | 314° |
| 2026-05-07 10:43 | 30.86906 | 30.56024 | 23019 ft | 412 kts | 314° |
| 2026-05-07 10:43 | 30.88943 | 30.53660 | 23357 ft | 414 kts | 314° |
| 2026-05-07 10:43 | 30.90990 | 30.51288 | 23683 ft | 417 kts | 314° |
| 2026-05-07 10:43 | 30.93047 | 30.48908 | 23978 ft | 419 kts | 314° |
| 2026-05-07 10:44 | 30.95121 | 30.46508 | 24277 ft | 420 kts | 313° |
| 2026-05-07 10:44 | 30.97196 | 30.44108 | 24579 ft | 421 kts | 313° |
| 2026-05-07 10:44 | 30.99276 | 30.41699 | 24876 ft | 422 kts | 313° |
| 2026-05-07 10:44 | 31.01360 | 30.39281 | 25165 ft | 423 kts | 313° |
| 2026-05-07 10:45 | 31.03449 | 30.36855 | 25465 ft | 425 kts | 313° |
| 2026-05-07 10:45 | 31.05546 | 30.34422 | 25755 ft | 426 kts | 313° |
| 2026-05-07 10:45 | 31.07551 | 30.31888 | 26044 ft | 425 kts | 306° |
| 2026-05-07 10:45 | 31.09179 | 30.29018 | 26331 ft | 424 kts | 296° |
| 2026-05-07 10:46 | 31.10373 | 30.25876 | 26592 ft | 424 kts | 288° |
| 2026-05-07 10:46 | 31.11270 | 30.22595 | 26856 ft | 425 kts | 287° |
| 2026-05-07 10:46 | 31.12162 | 30.19306 | 27127 ft | 426 kts | 287° |
| 2026-05-07 10:46 | 31.13056 | 30.16009 | 27396 ft | 427 kts | 287° |
| 2026-05-07 10:47 | 31.13956 | 30.12702 | 27659 ft | 428 kts | 287° |
| 2026-05-07 10:47 | 31.14861 | 30.09388 | 27924 ft | 429 kts | 287° |
| 2026-05-07 10:47 | 31.15767 | 30.06069 | 28181 ft | 430 kts | 287° |
| 2026-05-07 10:47 | 31.16677 | 30.02736 | 28448 ft | 431 kts | 287° |
| 2026-05-07 10:48 | 31.17819 | 29.99496 | 28699 ft | 434 kts | 296° |
| 2026-05-07 10:48 | 31.19425 | 29.96564 | 28922 ft | 437 kts | 306° |
| 2026-05-07 10:48 | 31.21512 | 29.93963 | 29213 ft | 440 kts | 316° |
| 2026-05-07 10:48 | 31.23983 | 29.91842 | 29577 ft | 443 kts | 326° |
| 2026-05-07 10:49 | 31.26692 | 29.90123 | 29919 ft | 443 kts | 328° |
| 2026-05-07 10:49 | 31.29410 | 29.88433 | 30257 ft | 442 kts | 328° |
| 2026-05-07 10:49 | 31.32119 | 29.86748 | 30553 ft | 440 kts | 328° |
| 2026-05-07 10:49 | 31.34818 | 29.85064 | 30854 ft | 439 kts | 328° |
| 2026-05-07 10:50 | 31.37505 | 29.83380 | 31147 ft | 437 kts | 328° |